Time;durP1;ratioP1;P1;durP2;ratioP2;P2;SDS_P1;SDS_P2;PMS_P1;PMS_P2;Temp;Humidity;BMP_temperature;BMP_pressure;BME280_temperature;BME280_humidity;BME280_pressure;Samples;Min_cycle;Max_cycle;Signal;HPM_P1;HPM_P2
2020/12/21 00:00:12;;;;;;;14.00;3.47;;;6.70;99.90;;;;;;5089165;28;20200;-78
2020/12/21 00:02:38;;;;;;;12.30;3.43;;;6.70;99.90;;;;;;5057241;28;20235;-78
2020/12/21 00:05:04;;;;;;;14.07;4.20;;;6.70;99.90;;;;;;5057182;28;20189;-77
2020/12/21 00:07:29;;;;;;;12.73;3.53;;;6.70;99.90;;;;;;5056543;28;20186;-77
2020/12/21 00:09:55;;;;;;;11.43;3.23;;;6.80;99.90;;;;;;5072173;28;20177;-77
2020/12/21 00:12:20;;;;;;;11.20;3.57;;;6.80;99.90;;;;;;5058984;28;20181;-78
2020/12/21 00:14:46;;;;;;;15.03;3.40;;;6.80;99.90;;;;;;5058497;28;20181;-77
2020/12/21 00:17:11;;;;;;;10.93;3.40;;;6.80;99.90;;;;;;5059158;28;20218;-78
2020/12/21 00:19:37;;;;;;;14.67;3.70;;;6.70;99.90;;;;;;5040271;28;20180;-77
2020/12/21 00:22:02;;;;;;;12.37;3.27;;;6.60;99.90;;;;;;5037039;28;20192;-78
2020/12/21 00:24:28;;;;;;;10.83;3.30;;;6.70;99.90;;;;;;5053695;28;20725;-77
2020/12/21 00:26:54;;;;;;;12.13;3.63;;;6.70;99.90;;;;;;5037828;28;20214;-77
2020/12/21 00:29:20;;;;;;;10.50;3.03;;;6.70;99.90;;;;;;5073996;28;20599;-77
2020/12/21 00:31:46;;;;;;;11.13;3.30;;;6.60;99.90;;;;;;5040880;28;20182;-77
2020/12/21 00:34:12;;;;;;;10.70;3.10;;;6.60;99.90;;;;;;5057426;28;20173;-77
2020/12/21 00:36:49;;;;;;;11.87;3.20;;;6.60;99.90;;;;;;5057001;28;20760;-77
2020/12/21 00:39:15;;;;;;;14.47;3.63;;;6.70;99.90;;;;;;5057786;28;20203;-78
2020/12/21 00:41:42;;;;;;;8.13;3.00;;;6.70;99.90;;;;;;5057096;28;20196;-77
2020/12/21 00:44:08;;;;;;;11.63;3.10;;;6.80;99.90;;;;;;5057156;28;20179;-78
2020/12/21 00:46:33;;;;;;;13.40;3.10;;;6.80;99.90;;;;;;5056611;28;20211;-78
2020/12/21 00:48:59;;;;;;;13.57;3.50;;;6.80;99.90;;;;;;5056994;28;20607;-77
2020/12/21 00:51:25;;;;;;;13.60;3.27;;;6.80;99.90;;;;;;5056807;28;20787;-77
2020/12/21 00:53:50;;;;;;;12.70;3.07;;;6.80;99.90;;;;;;5056855;28;20205;-77
2020/12/21 00:56:17;;;;;;;11.90;3.30;;;6.80;99.90;;;;;;5056556;28;20201;-78
2020/12/21 00:58:44;;;;;;;12.80;3.13;;;6.70;99.90;;;;;;5056971;28;20177;-77
2020/12/21 01:01:12;;;;;;;10.93;3.27;;;6.70;99.90;;;;;;5057193;28;20185;-78
2020/12/21 01:03:37;;;;;;;11.07;3.07;;;6.70;99.90;;;;;;5056836;28;20176;-78
2020/12/21 01:06:06;;;;;;;12.50;3.37;;;6.60;99.90;;;;;;5056259;28;20203;-77
2020/12/21 01:08:32;;;;;;;15.27;3.10;;;6.60;99.90;;;;;;5056667;28;20181;-78
2020/12/21 01:10:58;;;;;;;11.87;3.33;;;6.50;99.90;;;;;;5056530;28;20173;-78
2020/12/21 01:13:23;;;;;;;11.57;3.40;;;6.50;99.90;;;;;;5056540;28;20177;-79
2020/12/21 01:15:49;;;;;;;9.27;3.00;;;6.40;99.90;;;;;;5056377;28;20336;-77
2020/12/21 01:18:14;;;;;;;9.50;3.13;;;6.40;99.90;;;;;;5056030;28;20202;-77
2020/12/21 01:20:41;;;;;;;13.37;3.60;;;6.40;99.90;;;;;;5074170;28;20177;-78
2020/12/21 01:23:06;;;;;;;9.70;3.27;;;6.40;99.90;;;;;;5056651;28;20190;-77
2020/12/21 01:25:32;;;;;;;14.67;3.40;;;6.40;99.90;;;;;;5039543;28;20278;-78
2020/12/21 01:27:57;;;;;;;10.17;3.27;;;6.30;99.90;;;;;;5039782;28;20188;-77
2020/12/21 01:30:23;;;;;;;13.87;3.63;;;6.30;99.90;;;;;;5056022;28;20665;-77
2020/12/21 01:32:48;;;;;;;13.53;3.27;;;6.20;99.90;;;;;;5039625;28;20739;-77
2020/12/21 01:35:14;;;;;;;11.77;3.27;;;6.20;99.90;;;;;;5056439;28;20627;-77
2020/12/21 01:37:39;;;;;;;15.00;3.43;;;6.20;99.90;;;;;;5056185;28;20291;-78
2020/12/21 01:40:05;;;;;;;9.80;3.30;;;6.10;99.90;;;;;;5072054;28;20173;-78
2020/12/21 01:42:30;;;;;;;6.73;2.57;;;6.10;99.90;;;;;;5056174;28;20170;-77
2020/12/21 01:44:56;;;;;;;12.80;3.27;;;6.00;99.90;;;;;;5055775;28;20173;-77
2020/12/21 01:47:22;;;;;;;8.50;3.33;;;6.00;99.90;;;;;;5055639;22;20241;-78
2020/12/21 01:49:47;;;;;;;13.70;3.30;;;6.00;99.90;;;;;;5053425;28;20181;-78
2020/12/21 01:52:15;;;;;;;10.83;3.30;;;5.90;99.90;;;;;;5053576;28;20178;-76
2020/12/21 01:54:41;;;;;;;11.07;3.00;;;5.90;99.90;;;;;;5053869;28;20258;-76
2020/12/21 01:57:06;;;;;;;10.00;3.40;;;5.90;99.90;;;;;;5036647;28;20293;-76
2020/12/21 01:59:32;;;;;;;16.80;3.30;;;5.90;99.90;;;;;;5070125;28;20230;-77
2020/12/21 02:01:57;;;;;;;8.27;3.40;;;5.80;99.90;;;;;;5052982;28;20180;-76
2020/12/21 02:04:23;;;;;;;14.03;3.40;;;5.70;99.90;;;;;;5036885;28;20273;-76
2020/12/21 02:06:49;;;;;;;8.40;2.90;;;5.60;99.90;;;;;;5052929;28;20197;-76
2020/12/21 02:09:15;;;;;;;10.57;3.53;;;5.60;99.90;;;;;;5036343;28;20185;-77
2020/12/21 02:11:41;;;;;;;10.40;2.93;;;5.50;99.90;;;;;;5036482;28;20186;-77
2020/12/21 02:14:07;;;;;;;8.77;2.83;;;5.50;99.90;;;;;;5053342;28;20800;-77
2020/12/21 02:16:32;;;;;;;9.93;3.40;;;5.40;99.90;;;;;;5052580;28;20610;-78
2020/12/21 02:18:58;;;;;;;9.77;2.83;;;5.30;99.90;;;;;;5069277;28;20185;-76
2020/12/21 02:21:24;;;;;;;10.93;3.13;;;5.30;99.90;;;;;;5070223;28;20176;-76
2020/12/21 02:23:49;;;;;;;8.73;2.87;;;5.30;99.90;;;;;;5069705;28;20214;-77
2020/12/21 02:26:15;;;;;;;10.77;3.30;;;5.40;99.90;;;;;;5052786;28;20188;-77
2020/12/21 02:28:40;;;;;;;7.87;3.40;;;5.40;99.90;;;;;;5054634;28;20178;-77
2020/12/21 02:31:06;;;;;;;12.97;3.60;;;5.30;99.90;;;;;;5053783;28;20235;-78
2020/12/21 02:33:31;;;;;;;9.10;3.10;;;5.20;99.90;;;;;;5036396;28;20273;-78
2020/12/21 02:35:57;;;;;;;6.87;3.10;;;5.20;99.90;;;;;;5052811;28;20202;-76
2020/12/21 02:38:22;;;;;;;12.93;3.27;;;5.10;99.90;;;;;;5044160;28;20207;-76
2020/12/21 02:40:48;;;;;;;8.23;3.03;;;5.10;99.90;;;;;;5018373;28;20175;-76
2020/12/21 02:43:14;;;;;;;11.30;2.90;;;5.00;99.90;;;;;;5014638;28;20543;-76
2020/12/21 02:45:40;;;;;;;8.30;3.10;;;4.90;99.90;;;;;;5032122;28;20321;-75
2020/12/21 02:48:06;;;;;;;7.97;3.17;;;4.90;99.90;;;;;;5031582;28;20203;-76
2020/12/21 02:50:31;;;;;;;11.10;3.10;;;4.90;99.90;;;;;;4998236;28;20605;-75
2020/12/21 02:52:57;;;;;;;9.13;3.23;;;4.80;99.90;;;;;;5032376;28;20240;-76
2020/12/21 02:55:22;;;;;;;8.13;3.10;;;4.70;99.90;;;;;;5015347;28;20171;-74
2020/12/21 02:57:48;;;;;;;11.63;2.90;;;4.70;99.90;;;;;;4999743;28;20195;-78
2020/12/21 03:00:14;;;;;;;8.03;2.80;;;4.70;99.90;;;;;;5016515;28;20171;-78
2020/12/21 03:02:39;;;;;;;10.50;2.97;;;4.70;99.90;;;;;;5017068;28;20211;-77
2020/12/21 03:05:05;;;;;;;10.00;2.90;;;4.60;99.90;;;;;;5016438;28;20175;-76
2020/12/21 03:07:31;;;;;;;10.40;3.30;;;4.60;99.90;;;;;;5031184;28;20199;-76
2020/12/21 03:09:56;;;;;;;8.37;3.10;;;4.50;99.90;;;;;;5015308;28;20214;-75
2020/12/21 03:12:22;;;;;;;8.93;3.33;;;4.50;99.90;;;;;;4998703;28;20206;-76
2020/12/21 03:14:47;;;;;;;8.33;3.30;;;4.50;99.90;;;;;;5031710;28;20175;-76
2020/12/21 03:17:13;;;;;;;11.03;2.33;;;4.40;99.90;;;;;;5031389;28;20206;-78
2020/12/21 03:19:38;;;;;;;8.23;2.77;;;4.40;99.90;;;;;;5016686;28;20175;-78
2020/12/21 03:22:04;;;;;;;6.30;2.73;;;4.40;99.90;;;;;;5000642;28;20280;-78
2020/12/21 03:24:29;;;;;;;8.70;3.27;;;4.30;99.90;;;;;;5034215;28;20212;-78
2020/12/21 03:26:55;;;;;;;8.50;2.73;;;4.20;99.90;;;;;;5000805;28;20206;-78
2020/12/21 03:29:20;;;;;;;9.90;2.80;;;4.20;99.90;;;;;;5017520;28;20202;-78
2020/12/21 03:31:46;;;;;;;6.87;2.80;;;4.20;99.90;;;;;;5016941;28;20186;-77
2020/12/21 03:34:13;;;;;;;11.07;3.43;;;4.20;99.90;;;;;;5000055;28;20185;-77
2020/12/21 03:36:43;;;;;;;10.97;3.13;;;4.10;99.90;;;;;;5000316;28;20260;-75
2020/12/21 03:39:08;;;;;;;12.60;3.13;;;4.10;99.90;;;;;;5016128;28;20203;-76
2020/12/21 03:41:34;;;;;;;9.53;2.90;;;4.10;99.90;;;;;;5016422;28;20193;-76
2020/12/21 03:44:00;;;;;;;8.97;2.83;;;4.10;99.90;;;;;;5015501;28;20172;-76
2020/12/21 03:46:25;;;;;;;8.10;2.80;;;4.10;99.90;;;;;;5030389;28;20584;-75
2020/12/21 03:48:51;;;;;;;9.27;2.67;;;4.00;99.90;;;;;;5014955;28;20602;-76
2020/12/21 03:51:16;;;;;;;9.27;2.87;;;4.00;99.90;;;;;;4998469;28;20218;-76
2020/12/21 03:53:42;;;;;;;8.77;3.30;;;4.00;99.90;;;;;;5015260;28;20687;-77
2020/12/21 03:56:07;;;;;;;10.70;3.40;;;3.90;99.90;;;;;;5015548;28;20191;-76
2020/12/21 03:58:33;;;;;;;9.83;3.00;;;3.90;99.90;;;;;;5032166;28;20203;-78
2020/12/21 04:01:00;;;;;;;8.93;3.37;;;3.80;99.90;;;;;;5015570;28;20224;-77
2020/12/21 04:03:27;;;;;;;10.57;4.30;;;3.80;99.90;;;;;;5035983;28;20178;-77
2020/12/21 04:05:53;;;;;;;15.03;4.53;;;3.80;99.90;;;;;;5019891;28;20204;-77
2020/12/21 04:08:18;;;;;;;13.10;4.43;;;3.80;99.90;;;;;;5002970;28;20180;-77
2020/12/21 04:10:46;;;;;;;9.63;4.70;;;3.70;99.90;;;;;;5019477;28;20262;-77
2020/12/21 04:13:11;;;;;;;9.80;5.00;;;3.80;99.90;;;;;;5020571;28;20179;-77
2020/12/21 04:15:37;;;;;;;7.43;4.03;;;3.80;99.90;;;;;;5036007;28;20278;-77
2020/12/21 04:18:02;;;;;;;15.30;4.30;;;3.80;99.90;;;;;;5019606;28;20230;-79
2020/12/21 04:20:28;;;;;;;10.10;4.37;;;3.80;99.90;;;;;;5036785;28;20218;-77
2020/12/21 04:22:53;;;;;;;17.87;4.63;;;3.90;99.90;;;;;;5037039;28;20191;-78
2020/12/21 04:25:19;;;;;;;10.13;3.90;;;4.10;99.90;;;;;;5003980;28;20189;-78
2020/12/21 04:27:44;;;;;;;13.30;3.83;;;4.10;99.90;;;;;;5019903;28;20181;-77
2020/12/21 04:30:10;;;;;;;14.60;4.43;;;4.30;99.90;;;;;;5019964;28;20190;-78
2020/12/21 04:32:35;;;;;;;14.40;4.00;;;4.50;99.90;;;;;;5020103;28;20187;-78
2020/12/21 04:35:01;;;;;;;17.77;4.50;;;4.50;99.90;;;;;;5036525;28;20233;-79
2020/12/21 04:37:26;;;;;;;14.27;3.97;;;4.60;99.90;;;;;;5037002;28;20685;-78
2020/12/21 04:39:52;;;;;;;14.67;3.87;;;4.60;99.90;;;;;;5035968;28;20569;-78
2020/12/21 04:42:17;;;;;;;10.53;3.80;;;4.60;99.90;;;;;;5003321;28;20189;-76
2020/12/21 04:44:43;;;;;;;13.90;3.83;;;4.50;99.90;;;;;;5002980;28;20198;-78
2020/12/21 04:47:08;;;;;;;14.00;4.10;;;4.50;99.90;;;;;;5019473;28;20219;-78
2020/12/21 04:49:34;;;;;;;16.27;4.00;;;4.40;99.90;;;;;;5002833;28;20213;-77
2020/12/21 04:52:03;;;;;;;12.03;3.73;;;4.40;99.90;;;;;;5003496;28;20182;-77
2020/12/21 04:54:29;;;;;;;7.30;2.80;;;4.40;99.90;;;;;;5002979;28;20185;-78
2020/12/21 04:56:58;;;;;;;9.23;3.30;;;4.30;99.90;;;;;;5034947;28;20211;-78
2020/12/21 04:59:23;;;;;;;8.17;3.40;;;4.20;99.90;;;;;;5019156;28;20167;-78
2020/12/21 05:01:49;;;;;;;8.20;3.40;;;4.20;99.90;;;;;;5002512;28;20669;-78
2020/12/21 05:04:14;;;;;;;11.13;3.23;;;4.20;99.90;;;;;;5002903;28;20171;-78
2020/12/21 05:06:57;;;;;;;11.97;3.90;;;4.20;99.90;;;;;;5018501;28;20196;-77
2020/12/21 05:09:26;;;;;;;10.70;3.43;;;4.10;99.90;;;;;;5019895;28;20171;-78
2020/12/21 05:11:53;;;;;;;15.30;4.40;;;4.00;99.90;;;;;;5018764;28;20322;-77
2020/12/21 05:14:18;;;;;;;10.60;4.13;;;4.10;99.90;;;;;;5016958;28;20541;-76
2020/12/21 05:16:44;;;;;;;10.80;4.37;;;4.20;99.90;;;;;;5034222;28;20191;-77
2020/12/21 05:19:19;;;;;;;12.20;3.93;;;4.20;99.90;;;;;;5017925;28;20642;-75
2020/12/21 05:21:45;;;;;;;11.87;4.33;;;4.20;99.90;;;;;;5019321;28;20173;-76
2020/12/21 05:24:10;;;;;;;12.17;3.60;;;4.20;99.90;;;;;;5018068;28;20183;-78
2020/12/21 05:26:36;;;;;;;10.70;3.80;;;4.30;99.90;;;;;;5018187;28;20203;-77
2020/12/21 05:29:01;;;;;;;10.23;3.63;;;4.40;99.90;;;;;;5034118;28;20250;-77
2020/12/21 05:31:28;;;;;;;12.67;4.20;;;4.50;99.90;;;;;;5001695;28;20795;-77
2020/12/21 05:33:53;;;;;;;10.23;4.30;;;4.60;99.90;;;;;;5017875;28;20200;-77
2020/12/21 05:36:21;;;;;;;16.07;6.27;;;4.70;99.90;;;;;;5017454;28;20222;-77
2020/12/21 05:38:57;;;;;;;14.77;5.03;;;4.80;99.90;;;;;;5001571;28;20239;-76
2020/12/21 05:41:22;;;;;;;8.97;3.70;;;4.90;99.90;;;;;;5034341;28;20661;-75
2020/12/21 05:43:52;;;;;;;14.33;4.17;;;5.00;99.90;;;;;;5062154;28;20175;-76
2020/12/21 05:46:25;;;;;;;10.67;3.43;;;5.00;99.90;;;;;;5030445;28;20201;-75
2020/12/21 05:48:54;;;;;;;12.30;4.07;;;5.00;99.90;;;;;;5046513;28;20171;-75
2020/12/21 05:51:25;;;;;;;8.53;3.57;;;4.90;99.90;;;;;;5047268;28;20275;-76
2020/12/21 05:53:54;;;;;;;8.83;3.13;;;4.90;99.90;;;;;;5054918;28;20186;-75
2020/12/21 05:56:21;;;;;;;6.20;2.90;;;4.90;99.90;;;;;;5032377;28;20198;-76
2020/12/21 05:58:46;;;;;;;9.00;3.00;;;4.90;99.90;;;;;;5034479;28;20194;-75
2020/12/21 06:01:12;;;;;;;7.80;2.80;;;4.90;99.90;;;;;;5053277;28;20568;-76
2020/12/21 06:03:58;;;;;;;8.90;3.53;;;4.80;99.90;;;;;;5070903;28;20170;-80
2020/12/21 06:06:25;;;;;;;10.87;3.53;;;4.80;99.90;;;;;;5053740;28;20201;-79
2020/12/21 06:08:55;;;;;;;13.07;3.40;;;4.80;99.90;;;;;;5070559;28;20186;-80
2020/12/21 06:11:22;;;;;;;8.60;3.40;;;4.80;99.90;;;;;;5054043;28;20211;-78
2020/12/21 06:13:59;;;;;;;11.20;3.43;;;4.90;99.90;;;;;;5054563;28;20182;-79
2020/12/21 06:16:26;;;;;;;10.37;3.50;;;4.90;99.90;;;;;;5069879;28;20194;-79
2020/12/21 06:18:59;;;;;;;9.10;3.43;;;4.90;99.90;;;;;;5053774;28;20202;-80
2020/12/21 06:21:26;;;;;;;16.90;4.00;;;4.80;99.90;;;;;;5051907;28;20820;-78
2020/12/21 06:23:51;;;;;;;11.27;3.33;;;4.80;99.90;;;;;;5052062;28;20637;-80
2020/12/21 06:26:17;;;;;;;6.00;2.77;;;4.90;99.90;;;;;;5051827;28;20190;-75
2020/12/21 06:28:43;;;;;;;14.20;3.63;;;4.80;99.90;;;;;;5028137;28;20244;-75
2020/12/21 06:31:16;;;;;;;11.93;3.47;;;4.80;99.90;;;;;;5043882;28;20228;-75
2020/12/21 06:33:42;;;;;;;10.60;3.17;;;4.80;99.90;;;;;;5041103;28;20214;-75
2020/12/21 06:36:07;;;;;;;8.67;2.70;;;4.80;99.90;;;;;;5049199;28;20194;-81
2020/12/21 06:38:49;;;;;;;7.83;3.10;;;4.70;99.90;;;;;;5035113;28;20567;-80
2020/12/21 06:41:15;;;;;;;6.23;2.50;;;4.60;99.90;;;;;;5035153;28;20317;-80
2020/12/21 06:43:51;;;;;;;7.13;2.83;;;4.50;99.90;;;;;;5052259;28;20253;-76
2020/12/21 06:46:17;;;;;;;12.17;3.27;;;4.50;99.90;;;;;;5037114;28;20571;-79
2020/12/21 06:48:42;;;;;;;12.97;3.30;;;4.60;99.90;;;;;;5036350;28;20190;-76
2020/12/21 06:51:13;;;;;;;9.10;3.00;;;4.50;99.90;;;;;;5036647;28;20178;-77
2020/12/21 06:53:38;;;;;;;13.70;3.33;;;4.60;99.90;;;;;;5041766;28;20606;-79
2020/12/21 06:56:13;;;;;;;11.50;3.37;;;4.50;99.90;;;;;;5017217;28;20248;-77
2020/12/21 06:58:38;;;;;;;12.60;3.23;;;4.50;99.90;;;;;;5032835;28;20236;-76
2020/12/21 07:01:04;;;;;;;9.17;3.07;;;4.50;99.90;;;;;;5024395;28;20175;-78
2020/12/21 07:03:29;;;;;;;12.93;2.83;;;4.50;99.90;;;;;;5016594;28;20276;-76
2020/12/21 07:05:58;;;;;;;8.87;2.63;;;4.60;99.90;;;;;;5018396;28;20633;-77
2020/12/21 07:08:23;;;;;;;8.17;2.87;;;4.60;99.90;;;;;;5052162;28;20903;-75
2020/12/21 07:10:56;;;;;;;8.87;2.83;;;4.50;99.90;;;;;;5068394;28;20187;-83
2020/12/21 07:13:23;;;;;;;7.53;2.63;;;4.60;99.90;;;;;;5036017;28;20184;-80
2020/12/21 07:15:48;;;;;;;8.40;2.87;;;4.70;99.90;;;;;;5036117;28;20198;-83
2020/12/21 07:18:14;;;;;;;8.97;3.00;;;4.70;99.90;;;;;;5051901;28;20223;-83
2020/12/21 07:20:40;;;;;;;10.30;3.10;;;4.70;99.90;;;;;;5068305;28;20254;-84
2020/12/21 07:23:06;;;;;;;8.43;2.93;;;4.70;99.90;;;;;;5051556;28;20174;-84
2020/12/21 07:25:31;;;;;;;8.50;2.63;;;4.70;99.90;;;;;;5038118;28;20186;-82
2020/12/21 07:27:57;;;;;;;8.60;2.73;;;4.80;99.90;;;;;;5035497;28;20188;-80
2020/12/21 07:30:28;;;;;;;8.53;2.40;;;4.90;99.90;;;;;;5015223;28;20253;-81
2020/12/21 07:32:54;;;;;;;7.90;2.70;;;4.90;99.90;;;;;;5034085;28;20639;-81
2020/12/21 07:35:19;;;;;;;11.33;2.47;;;4.90;99.90;;;;;;5051271;28;20178;-80
2020/12/21 07:37:45;;;;;;;12.97;2.67;;;4.90;99.90;;;;;;5063944;28;20227;-84
2020/12/21 07:40:20;;;;;;;6.70;2.50;;;4.90;99.90;;;;;;5021689;28;20186;-80
2020/12/21 07:42:46;;;;;;;7.53;2.60;;;5.00;99.90;;;;;;5024372;28;20552;-81
2020/12/21 07:45:12;;;;;;;5.77;2.10;;;5.00;99.90;;;;;;5021165;28;20648;-79
2020/12/21 07:47:37;;;;;;;8.43;2.40;;;5.10;99.90;;;;;;5055923;28;20591;-82
2020/12/21 07:50:05;;;;;;;7.77;2.50;;;5.00;99.90;;;;;;5039249;28;20274;-81
2020/12/21 07:52:31;;;;;;;6.77;2.67;;;5.00;99.90;;;;;;5056314;28;20209;-81
2020/12/21 07:54:59;;;;;;;7.63;2.93;;;5.00;99.90;;;;;;5039146;28;20659;-82
2020/12/21 07:57:31;;;;;;;8.53;2.73;;;5.00;99.90;;;;;;5055168;28;20328;-81
2020/12/21 07:59:57;;;;;;;7.37;2.70;;;5.00;99.90;;;;;;5071607;28;20182;-81
2020/12/21 08:02:24;;;;;;;5.10;2.50;;;5.00;99.90;;;;;;5051414;28;20200;-77
2020/12/21 08:04:49;;;;;;;7.57;2.40;;;5.00;99.90;;;;;;5035686;28;20600;-77
2020/12/21 08:07:15;;;;;;;9.40;2.20;;;5.00;99.90;;;;;;5041846;28;20210;-78
2020/12/21 08:09:42;;;;;;;7.33;2.03;;;4.90;99.90;;;;;;5041989;28;20264;-77
2020/12/21 08:12:08;;;;;;;6.87;2.63;;;5.00;99.90;;;;;;5039430;28;20177;-78
2020/12/21 08:14:33;;;;;;;6.93;2.50;;;5.10;99.90;;;;;;5050552;28;20576;-78
2020/12/21 08:17:08;;;;;;;11.77;2.83;;;5.10;99.90;;;;;;5024586;28;20224;-77
2020/12/21 08:19:44;;;;;;;9.23;2.43;;;5.10;99.90;;;;;;5018016;28;20602;-78
2020/12/21 08:22:09;;;;;;;10.83;2.43;;;5.10;99.90;;;;;;5019262;28;20181;-76
2020/12/21 08:24:35;;;;;;;7.70;2.40;;;5.30;99.90;;;;;;5017740;28;20178;-77
2020/12/21 08:27:00;;;;;;;6.97;2.50;;;5.30;99.90;;;;;;5018067;28;20215;-77
2020/12/21 08:29:26;;;;;;;8.93;2.40;;;5.40;99.90;;;;;;5036518;28;20184;-82
2020/12/21 08:31:52;;;;;;;7.93;2.20;;;5.40;99.90;;;;;;5075586;28;20185;-83
2020/12/21 08:34:17;;;;;;;8.77;2.80;;;5.40;99.90;;;;;;5059021;28;20212;-78
2020/12/21 08:36:44;;;;;;;8.47;2.60;;;5.40;99.90;;;;;;5058950;28;20213;-82
2020/12/21 08:39:17;;;;;;;8.27;2.43;;;5.50;99.90;;;;;;5057578;28;20177;-76
2020/12/21 08:41:46;;;;;;;8.53;2.70;;;5.70;99.90;;;;;;5074729;28;20262;-84
2020/12/21 08:44:22;;;;;;;12.17;2.80;;;5.70;99.90;;;;;;5065005;28;20205;-83
2020/12/21 08:46:48;;;;;;;10.13;2.47;;;5.80;99.90;;;;;;5055256;28;20216;-82
2020/12/21 08:49:14;;;;;;;10.33;2.53;;;6.00;99.90;;;;;;5054065;28;20194;-80
2020/12/21 08:51:40;;;;;;;9.50;2.43;;;6.00;99.90;;;;;;5070550;28;20175;-80
2020/12/21 08:54:06;;;;;;;7.87;2.50;;;6.00;99.90;;;;;;5071197;28;20170;-83
2020/12/21 08:56:31;;;;;;;9.27;2.30;;;6.10;99.90;;;;;;5054920;28;20202;-84
2020/12/21 08:58:57;;;;;;;11.47;2.37;;;6.10;99.90;;;;;;5055765;28;20221;-84
2020/12/21 09:01:22;;;;;;;8.00;2.67;;;6.10;99.90;;;;;;5056294;28;20253;-85
2020/12/21 09:03:48;;;;;;;4.93;2.10;;;6.10;99.90;;;;;;5054138;28;20174;-82
2020/12/21 09:06:21;;;;;;;11.37;2.67;;;6.10;99.90;;;;;;5055438;28;20285;-84
2020/12/21 09:08:47;;;;;;;10.10;2.20;;;6.10;99.90;;;;;;5058609;28;20276;-82
2020/12/21 09:11:16;;;;;;;9.40;2.70;;;6.20;99.90;;;;;;5057739;28;20265;-82
2020/12/21 09:13:41;;;;;;;9.30;2.63;;;6.20;99.90;;;;;;5057784;28;20189;-84
2020/12/21 09:16:08;;;;;;;7.93;2.33;;;6.30;99.90;;;;;;5073052;28;20591;-82
2020/12/21 09:18:33;;;;;;;6.53;2.67;;;6.40;99.90;;;;;;5057733;28;20203;-81
2020/12/21 09:20:59;;;;;;;10.17;2.50;;;6.50;99.90;;;;;;5057073;28;20632;-83
2020/12/21 09:23:24;;;;;;;9.37;2.80;;;6.40;99.90;;;;;;5056776;28;20174;-79
2020/12/21 09:25:50;;;;;;;8.70;3.90;;;6.50;99.90;;;;;;5065976;28;20267;-81
2020/12/21 09:28:15;;;;;;;8.53;2.93;;;6.60;99.90;;;;;;5053287;28;20183;-80
2020/12/21 09:30:41;;;;;;;8.40;3.03;;;6.70;99.90;;;;;;5069679;28;20179;-83
2020/12/21 09:33:06;;;;;;;9.00;2.60;;;6.70;99.90;;;;;;5036477;28;20171;-80
2020/12/21 09:35:32;;;;;;;5.67;2.07;;;6.80;99.90;;;;;;5050217;28;20175;-79
2020/12/21 09:37:57;;;;;;;4.13;2.40;;;6.90;99.90;;;;;;5044247;28;20253;-81
2020/12/21 09:40:23;;;;;;;12.27;2.67;;;6.90;99.90;;;;;;5016206;28;20183;-80
2020/12/21 09:42:48;;;;;;;6.50;2.57;;;6.90;99.90;;;;;;5020544;28;20182;-82
2020/12/21 09:45:14;;;;;;;12.27;2.63;;;7.00;99.90;;;;;;5028788;28;20189;-81
2020/12/21 09:47:39;;;;;;;6.83;2.50;;;7.00;99.90;;;;;;5046529;28;20203;-83
2020/12/21 09:50:05;;;;;;;8.37;2.70;;;7.10;99.90;;;;;;5027882;28;20178;-82
2020/12/21 09:52:31;;;;;;;8.40;2.50;;;7.10;99.90;;;;;;5019233;28;20183;-83
2020/12/21 09:54:56;;;;;;;8.73;2.57;;;7.10;99.90;;;;;;5024723;28;20191;-83
2020/12/21 09:57:22;;;;;;;7.07;2.93;;;7.30;99.90;;;;;;5024465;28;20211;-84
2020/12/21 09:59:47;;;;;;;8.77;2.90;;;7.30;99.90;;;;;;5063286;28;20176;-81
2020/12/21 10:02:13;;;;;;;6.43;2.20;;;7.30;99.90;;;;;;5022489;28;20655;-79
2020/12/21 10:04:38;;;;;;;9.40;2.53;;;7.40;99.90;;;;;;5032295;28;20171;-80
2020/12/21 10:07:04;;;;;;;9.23;2.60;;;7.50;99.90;;;;;;5035016;28;20260;-77
2020/12/21 10:09:30;;;;;;;10.30;2.60;;;7.50;99.90;;;;;;5050593;28;20177;-78
2020/12/21 10:11:55;;;;;;;6.30;2.27;;;7.40;99.90;;;;;;5020381;28;20193;-77
2020/12/21 10:14:21;;;;;;;8.57;2.47;;;7.50;99.90;;;;;;5012165;28;20183;-78
2020/12/21 10:16:51;;;;;;;5.90;2.30;;;7.60;99.90;;;;;;5021769;28;20635;-78
2020/12/21 10:19:17;;;;;;;10.37;2.93;;;7.60;99.90;;;;;;5047806;28;20183;-78
2020/12/21 10:21:42;;;;;;;10.93;3.23;;;7.60;99.90;;;;;;5049065;28;20186;-77
2020/12/21 10:24:08;;;;;;;6.73;2.20;;;7.70;99.90;;;;;;5035362;28;20173;-77
2020/12/21 10:26:38;;;;;;;6.50;2.30;;;7.70;99.90;;;;;;5036538;28;20200;-79
2020/12/21 10:29:03;;;;;;;7.90;2.70;;;7.80;99.90;;;;;;5020365;28;20261;-83
2020/12/21 10:31:29;;;;;;;9.03;2.60;;;7.70;99.90;;;;;;5045231;28;20213;-77
2020/12/21 10:33:55;;;;;;;6.63;2.90;;;7.70;99.90;;;;;;5034584;28;20207;-77
2020/12/21 10:36:20;;;;;;;8.57;2.70;;;7.80;99.90;;;;;;5015684;28;20195;-74
2020/12/21 10:38:47;;;;;;;8.60;2.90;;;7.90;99.90;;;;;;5032086;28;20199;-77
2020/12/21 10:41:12;;;;;;;5.50;2.50;;;7.90;99.90;;;;;;5023511;28;20182;-77
2020/12/21 10:43:38;;;;;;;7.57;2.70;;;7.90;99.90;;;;;;5027019;28;20182;-78
2020/12/21 10:46:03;;;;;;;7.90;2.40;;;8.00;99.90;;;;;;5051258;28;20226;-78
2020/12/21 10:48:29;;;;;;;10.67;2.80;;;7.90;99.90;;;;;;5034566;28;20190;-78
2020/12/21 10:50:55;;;;;;;7.97;2.60;;;7.90;99.90;;;;;;5053684;28;20190;-78
2020/12/21 10:53:21;;;;;;;8.23;2.47;;;8.00;99.90;;;;;;5054565;28;20170;-80
2020/12/21 10:55:47;;;;;;;10.20;2.60;;;8.10;99.90;;;;;;5058828;28;20196;-83
2020/12/21 10:58:12;;;;;;;7.07;2.20;;;8.00;99.90;;;;;;5066331;28;20202;-83
2020/12/21 11:00:38;;;;;;;8.37;2.60;;;8.00;99.90;;;;;;5051835;28;20610;-79
2020/12/21 11:03:03;;;;;;;8.67;2.20;;;8.10;99.90;;;;;;5051798;28;20713;-82
2020/12/21 11:05:29;;;;;;;8.20;2.30;;;8.10;99.90;;;;;;5054426;28;20268;-78
2020/12/21 11:07:55;;;;;;;7.53;2.40;;;8.10;99.90;;;;;;5068010;28;20257;-80
2020/12/21 11:10:20;;;;;;;10.00;2.30;;;8.10;99.90;;;;;;5068633;28;20257;-80
2020/12/21 11:12:46;;;;;;;16.10;5.37;;;8.20;99.90;;;;;;5050329;28;20170;-78
2020/12/21 11:15:11;;;;;;;6.97;2.50;;;8.20;99.90;;;;;;5050868;28;20211;-77
2020/12/21 11:17:37;;;;;;;6.10;2.10;;;8.20;99.90;;;;;;5051043;28;20637;-76
2020/12/21 11:20:02;;;;;;;7.37;2.23;;;8.20;99.90;;;;;;5052316;28;20174;-76
2020/12/21 11:22:28;;;;;;;10.63;2.43;;;8.30;99.90;;;;;;5067930;28;20225;-77
2020/12/21 11:24:54;;;;;;;8.93;2.30;;;8.20;99.90;;;;;;5069003;28;20174;-78
2020/12/21 11:27:19;;;;;;;7.73;2.27;;;8.30;99.90;;;;;;5058924;28;20209;-80
2020/12/21 11:29:45;;;;;;;5.43;1.97;;;8.40;99.90;;;;;;5071283;28;20177;-80
2020/12/21 11:32:10;;;;;;;7.53;2.10;;;8.50;99.90;;;;;;5071788;28;20605;-79
2020/12/21 11:34:36;;;;;;;7.43;1.83;;;8.40;99.90;;;;;;5054678;28;20696;-79
2020/12/21 11:37:01;;;;;;;8.10;2.00;;;8.40;99.90;;;;;;5054025;28;20296;-78
2020/12/21 11:39:27;;;;;;;7.70;2.20;;;8.50;99.90;;;;;;5071179;28;20272;-80
2020/12/21 11:41:52;;;;;;;10.87;2.40;;;8.60;99.90;;;;;;5054012;28;20215;-80
2020/12/21 11:44:18;;;;;;;7.10;1.90;;;8.60;99.90;;;;;;5054347;28;20205;-78
2020/12/21 11:46:43;;;;;;;6.63;1.80;;;8.60;99.90;;;;;;5045106;28;20218;-79
2020/12/21 11:49:09;;;;;;;7.03;1.50;;;8.60;99.90;;;;;;5015372;28;20187;-79
2020/12/21 11:51:34;;;;;;;7.33;1.97;;;8.70;99.90;;;;;;5034977;28;20190;-82
2020/12/21 11:54:00;;;;;;;9.67;2.57;;;8.60;99.90;;;;;;5003352;28;20173;-83
2020/12/21 11:56:26;;;;;;;7.00;2.07;;;8.60;99.90;;;;;;5018397;28;20202;-83
2020/12/21 11:58:51;;;;;;;7.13;2.67;;;8.50;99.90;;;;;;5018669;28;20215;-82
2020/12/21 12:01:17;;;;;;;7.97;2.40;;;8.50;99.90;;;;;;5035390;28;20201;-83
2020/12/21 12:03:43;;;;;;;10.63;2.83;;;8.40;99.90;;;;;;5018341;28;20179;-84
2020/12/21 12:06:09;;;;;;;9.17;3.07;;;8.50;99.90;;;;;;5018065;28;20199;-84
2020/12/21 12:08:34;;;;;;;8.40;2.80;;;8.50;99.90;;;;;;5019841;28;20178;-84
2020/12/21 12:11:00;;;;;;;7.70;2.30;;;8.50;99.90;;;;;;4998637;28;20596;-81
2020/12/21 12:13:26;;;;;;;6.93;2.33;;;8.40;99.90;;;;;;5015281;28;20354;-84
2020/12/21 12:15:51;;;;;;;7.57;2.23;;;8.50;99.90;;;;;;5015137;28;20207;-84
2020/12/21 12:18:17;;;;;;;6.00;1.80;;;8.40;99.90;;;;;;5014397;28;20219;-82
2020/12/21 12:20:42;;;;;;;8.00;2.33;;;8.40;99.90;;;;;;5025798;28;20187;-81
2020/12/21 12:23:08;;;;;;;9.90;2.10;;;8.40;99.90;;;;;;5015867;28;20555;-80
2020/12/21 12:25:33;;;;;;;8.77;2.30;;;8.40;99.90;;;;;;5049403;28;20548;-79
2020/12/21 12:28:00;;;;;;;5.60;1.90;;;8.40;99.90;;;;;;5037297;28;20182;-83
2020/12/21 12:30:26;;;;;;;6.53;2.20;;;8.30;99.90;;;;;;5021407;28;20182;-78
2020/12/21 12:32:51;;;;;;;10.47;2.50;;;8.40;99.90;;;;;;5031119;28;20198;-81
2020/12/21 12:35:17;;;;;;;10.27;2.70;;;8.30;99.90;;;;;;5027155;28;20547;-80
2020/12/21 12:37:42;;;;;;;10.13;2.40;;;8.30;99.90;;;;;;5016052;28;20930;-78
2020/12/21 12:40:08;;;;;;;6.87;2.23;;;8.40;99.90;;;;;;5020613;28;20531;-77
2020/12/21 12:42:33;;;;;;;4.23;2.17;;;8.30;99.90;;;;;;5054092;28;20696;-78
2020/12/21 12:44:59;;;;;;;8.77;2.17;;;8.20;99.90;;;;;;5037277;28;20175;-78
2020/12/21 12:47:25;;;;;;;7.50;2.77;;;8.20;99.90;;;;;;5019992;28;20636;-80